sensor_id;sensor_type;location;lat;lon;timestamp;P1;durP1;ratioP1;P2;durP2;ratioP2
51616;SDS011;37697;52.588;13.394;2023-04-25T00:04:45;4.10;;;2.40;;
51616;SDS011;37697;52.588;13.394;2023-04-25T00:10:04;5.70;;;2.70;;
51616;SDS011;37697;52.588;13.394;2023-04-25T00:15:31;4.20;;;2.30;;
51616;SDS011;37697;52.588;13.394;2023-04-25T00:20:58;4.50;;;1.90;;
51616;SDS011;37697;52.588;13.394;2023-04-25T00:26:23;5.30;;;2.30;;
51616;SDS011;37697;52.588;13.394;2023-04-25T00:31:49;4.50;;;2.50;;
51616;SDS011;37697;52.588;13.394;2023-04-25T00:37:15;4.30;;;2.10;;
51616;SDS011;37697;52.588;13.394;2023-04-25T00:42:41;4.70;;;2.00;;
51616;SDS011;37697;52.588;13.394;2023-04-25T00:48:01;5.80;;;1.90;;
51616;SDS011;37697;52.588;13.394;2023-04-25T00:53:28;7.20;;;2.90;;
51616;SDS011;37697;52.588;13.394;2023-04-25T00:58:55;5.30;;;2.50;;
51616;SDS011;37697;52.588;13.394;2023-04-25T01:04:21;5.50;;;2.70;;
51616;SDS011;37697;52.588;13.394;2023-04-25T01:09:47;8.40;;;2.50;;
51616;SDS011;37697;52.588;13.394;2023-04-25T01:15:15;5.80;;;2.70;;
51616;SDS011;37697;52.588;13.394;2023-04-25T01:20:41;7.20;;;2.80;;
51616;SDS011;37697;52.588;13.394;2023-04-25T01:26:07;7.00;;;2.70;;
51616;SDS011;37697;52.588;13.394;2023-04-25T01:31:34;6.00;;;2.40;;
51616;SDS011;37697;52.588;13.394;2023-04-25T01:37:01;8.30;;;2.70;;
51616;SDS011;37697;52.588;13.394;2023-04-25T01:42:27;6.00;;;2.20;;
51616;SDS011;37697;52.588;13.394;2023-04-25T01:47:52;5.50;;;2.80;;
51616;SDS011;37697;52.588;13.394;2023-04-25T01:53:18;6.30;;;2.90;;
51616;SDS011;37697;52.588;13.394;2023-04-25T01:58:44;7.30;;;2.30;;
51616;SDS011;37697;52.588;13.394;2023-04-25T02:04:10;5.80;;;2.90;;
51616;SDS011;37697;52.588;13.394;2023-04-25T02:09:36;5.60;;;2.60;;
51616;SDS011;37697;52.588;13.394;2023-04-25T02:15:02;5.80;;;2.60;;
51616;SDS011;37697;52.588;13.394;2023-04-25T02:20:29;6.60;;;2.60;;
51616;SDS011;37697;52.588;13.394;2023-04-25T02:25:56;8.00;;;3.20;;
51616;SDS011;37697;52.588;13.394;2023-04-25T02:31:22;6.00;;;2.80;;
51616;SDS011;37697;52.588;13.394;2023-04-25T02:36:49;9.30;;;3.50;;
51616;SDS011;37697;52.588;13.394;2023-04-25T02:42:15;6.10;;;3.10;;
51616;SDS011;37697;52.588;13.394;2023-04-25T02:47:40;7.20;;;2.90;;
51616;SDS011;37697;52.588;13.394;2023-04-25T02:53:06;7.80;;;3.30;;
51616;SDS011;37697;52.588;13.394;2023-04-25T02:58:32;6.80;;;3.30;;
51616;SDS011;37697;52.588;13.394;2023-04-25T03:03:58;9.10;;;3.70;;
51616;SDS011;37697;52.588;13.394;2023-04-25T03:09:16;7.60;;;3.30;;
51616;SDS011;37697;52.588;13.394;2023-04-25T03:14:42;8.10;;;3.00;;
51616;SDS011;37697;52.588;13.394;2023-04-25T03:20:09;7.40;;;3.40;;
51616;SDS011;37697;52.588;13.394;2023-04-25T03:25:36;7.30;;;3.40;;
51616;SDS011;37697;52.588;13.394;2023-04-25T03:31:02;9.50;;;3.80;;
51616;SDS011;37697;52.588;13.394;2023-04-25T03:36:28;6.30;;;3.10;;
51616;SDS011;37697;52.588;13.394;2023-04-25T03:41:53;7.00;;;4.00;;
51616;SDS011;37697;52.588;13.394;2023-04-25T03:47:19;10.90;;;3.90;;
51616;SDS011;37697;52.588;13.394;2023-04-25T03:52:45;7.30;;;3.50;;
51616;SDS011;37697;52.588;13.394;2023-04-25T03:58:11;8.20;;;3.60;;
51616;SDS011;37697;52.588;13.394;2023-04-25T04:03:37;7.30;;;3.40;;
51616;SDS011;37697;52.588;13.394;2023-04-25T04:09:03;6.40;;;3.40;;
51616;SDS011;37697;52.588;13.394;2023-04-25T04:14:29;6.60;;;2.70;;
51616;SDS011;37697;52.588;13.394;2023-04-25T04:19:55;8.00;;;3.00;;
51616;SDS011;37697;52.588;13.394;2023-04-25T04:25:21;8.60;;;5.00;;
51616;SDS011;37697;52.588;13.394;2023-04-25T04:30:47;7.10;;;3.40;;
51616;SDS011;37697;52.588;13.394;2023-04-25T04:36:13;9.50;;;3.60;;
51616;SDS011;37697;52.588;13.394;2023-04-25T04:41:38;9.30;;;3.80;;
51616;SDS011;37697;52.588;13.394;2023-04-25T04:47:04;5.90;;;3.00;;
51616;SDS011;37697;52.588;13.394;2023-04-25T04:52:30;7.00;;;3.00;;
51616;SDS011;37697;52.588;13.394;2023-04-25T04:57:56;5.10;;;2.80;;
51616;SDS011;37697;52.588;13.394;2023-04-25T05:03:22;7.90;;;2.90;;
51616;SDS011;37697;52.588;13.394;2023-04-25T05:08:48;6.80;;;2.60;;
51616;SDS011;37697;52.588;13.394;2023-04-25T05:14:12;6.60;;;3.00;;
51616;SDS011;37697;52.588;13.394;2023-04-25T05:19:38;8.80;;;3.30;;
51616;SDS011;37697;52.588;13.394;2023-04-25T05:25:05;6.80;;;3.30;;
51616;SDS011;37697;52.588;13.394;2023-04-25T05:30:24;8.80;;;2.80;;
51616;SDS011;37697;52.588;13.394;2023-04-25T05:35:50;6.70;;;3.80;;
51616;SDS011;37697;52.588;13.394;2023-04-25T05:41:16;10.70;;;4.00;;
51616;SDS011;37697;52.588;13.394;2023-04-25T05:46:42;6.50;;;3.10;;
51616;SDS011;37697;52.588;13.394;2023-04-25T05:52:08;8.30;;;3.70;;
51616;SDS011;37697;52.588;13.394;2023-04-25T05:57:32;9.00;;;3.40;;
51616;SDS011;37697;52.588;13.394;2023-04-25T06:02:58;6.40;;;3.50;;
51616;SDS011;37697;52.588;13.394;2023-04-25T06:08:24;9.00;;;3.90;;
51616;SDS011;37697;52.588;13.394;2023-04-25T06:13:49;8.30;;;3.60;;
51616;SDS011;37697;52.588;13.394;2023-04-25T06:19:15;7.40;;;3.80;;
51616;SDS011;37697;52.588;13.394;2023-04-25T06:24:42;9.50;;;3.70;;
51616;SDS011;37697;52.588;13.394;2023-04-25T06:30:08;8.10;;;3.90;;
51616;SDS011;37697;52.588;13.394;2023-04-25T06:35:35;8.60;;;3.90;;
51616;SDS011;37697;52.588;13.394;2023-04-25T06:41:01;7.30;;;3.80;;
51616;SDS011;37697;52.588;13.394;2023-04-25T06:46:27;9.40;;;4.00;;
51616;SDS011;37697;52.588;13.394;2023-04-25T06:51:53;8.20;;;3.30;;
51616;SDS011;37697;52.588;13.394;2023-04-25T06:57:19;8.50;;;3.80;;
51616;SDS011;37697;52.588;13.394;2023-04-25T07:02:45;8.80;;;3.70;;
51616;SDS011;37697;52.588;13.394;2023-04-25T07:08:11;6.90;;;3.70;;
51616;SDS011;37697;52.588;13.394;2023-04-25T07:13:37;6.60;;;3.20;;
51616;SDS011;37697;52.588;13.394;2023-04-25T07:19:03;9.00;;;3.80;;
51616;SDS011;37697;52.588;13.394;2023-04-25T07:24:29;9.60;;;4.00;;
51616;SDS011;37697;52.588;13.394;2023-04-25T07:29:54;5.80;;;2.90;;
51616;SDS011;37697;52.588;13.394;2023-04-25T07:35:19;8.20;;;3.30;;
51616;SDS011;37697;52.588;13.394;2023-04-25T07:40:46;7.90;;;3.20;;
51616;SDS011;37697;52.588;13.394;2023-04-25T07:46:12;11.00;;;2.90;;
51616;SDS011;37697;52.588;13.394;2023-04-25T07:51:38;12.20;;;3.10;;
51616;SDS011;37697;52.588;13.394;2023-04-25T07:57:04;12.00;;;3.50;;
51616;SDS011;37697;52.588;13.394;2023-04-25T08:02:28;14.00;;;3.20;;
51616;SDS011;37697;52.588;13.394;2023-04-25T08:07:55;13.80;;;3.00;;
51616;SDS011;37697;52.588;13.394;2023-04-25T08:13:20;14.30;;;3.50;;
51616;SDS011;37697;52.588;13.394;2023-04-25T08:18:46;13.20;;;2.80;;
51616;SDS011;37697;52.588;13.394;2023-04-25T08:24:12;11.60;;;3.20;;
51616;SDS011;37697;52.588;13.394;2023-04-25T08:29:42;19.30;;;4.70;;
51616;SDS011;37697;52.588;13.394;2023-04-25T08:35:08;14.00;;;4.10;;
51616;SDS011;37697;52.588;13.394;2023-04-25T08:40:35;12.00;;;3.30;;
51616;SDS011;37697;52.588;13.394;2023-04-25T08:46:03;12.40;;;3.10;;
51616;SDS011;37697;52.588;13.394;2023-04-25T08:51:30;8.70;;;2.50;;
51616;SDS011;37697;52.588;13.394;2023-04-25T08:56:57;8.80;;;3.50;;
51616;SDS011;37697;52.588;13.394;2023-04-25T09:02:25;11.20;;;2.70;;
51616;SDS011;37697;52.588;13.394;2023-04-25T09:07:51;12.90;;;3.30;;
51616;SDS011;37697;52.588;13.394;2023-04-25T09:13:24;13.00;;;2.70;;
51616;SDS011;37697;52.588;13.394;2023-04-25T09:18:50;8.20;;;2.70;;
51616;SDS011;37697;52.588;13.394;2023-04-25T09:24:16;10.00;;;2.70;;
51616;SDS011;37697;52.588;13.394;2023-04-25T09:29:57;10.30;;;2.90;;
51616;SDS011;37697;52.588;13.394;2023-04-25T09:35:26;7.20;;;2.40;;
51616;SDS011;37697;52.588;13.394;2023-04-25T09:40:52;10.90;;;2.80;;
51616;SDS011;37697;52.588;13.394;2023-04-25T09:46:20;7.80;;;1.90;;
51616;SDS011;37697;52.588;13.394;2023-04-25T09:51:55;7.00;;;1.80;;
51616;SDS011;37697;52.588;13.394;2023-04-25T09:57:21;9.10;;;2.00;;
51616;SDS011;37697;52.588;13.394;2023-04-25T10:02:48;6.90;;;1.70;;
51616;SDS011;37697;52.588;13.394;2023-04-25T10:08:16;6.60;;;1.80;;
51616;SDS011;37697;52.588;13.394;2023-04-25T10:13:42;6.20;;;1.60;;
51616;SDS011;37697;52.588;13.394;2023-04-25T10:19:09;7.20;;;2.80;;
51616;SDS011;37697;52.588;13.394;2023-04-25T10:24:36;8.50;;;2.10;;
51616;SDS011;37697;52.588;13.394;2023-04-25T10:30:01;8.30;;;2.50;;
51616;SDS011;37697;52.588;13.394;2023-04-25T10:35:28;7.90;;;2.10;;
51616;SDS011;37697;52.588;13.394;2023-04-25T10:41:03;7.00;;;1.90;;
51616;SDS011;37697;52.588;13.394;2023-04-25T10:46:30;8.90;;;1.80;;
51616;SDS011;37697;52.588;13.394;2023-04-25T10:52:15;6.70;;;1.90;;
51616;SDS011;37697;52.588;13.394;2023-04-25T10:57:43;6.20;;;1.70;;
51616;SDS011;37697;52.588;13.394;2023-04-25T11:03:15;5.20;;;1.80;;
51616;SDS011;37697;52.588;13.394;2023-04-25T11:08:47;4.60;;;1.90;;
51616;SDS011;37697;52.588;13.394;2023-04-25T11:14:14;5.80;;;1.60;;
51616;SDS011;37697;52.588;13.394;2023-04-25T11:19:33;7.70;;;1.70;;
51616;SDS011;37697;52.588;13.394;2023-04-25T11:25:01;8.50;;;2.20;;
51616;SDS011;37697;52.588;13.394;2023-04-25T11:30:30;6.30;;;1.50;;
51616;SDS011;37697;52.588;13.394;2023-04-25T11:35:56;6.40;;;1.60;;
51616;SDS011;37697;52.588;13.394;2023-04-25T11:41:22;4.60;;;1.60;;
51616;SDS011;37697;52.588;13.394;2023-04-25T11:46:49;8.20;;;1.90;;
51616;SDS011;37697;52.588;13.394;2023-04-25T11:52:15;5.90;;;1.80;;
51616;SDS011;37697;52.588;13.394;2023-04-25T11:57:42;9.00;;;1.70;;
51616;SDS011;37697;52.588;13.394;2023-04-25T12:03:09;8.00;;;1.70;;
51616;SDS011;37697;52.588;13.394;2023-04-25T12:08:35;7.10;;;1.50;;
51616;SDS011;37697;52.588;13.394;2023-04-25T12:14:04;3.50;;;1.40;;
51616;SDS011;37697;52.588;13.394;2023-04-25T12:19:32;5.50;;;1.90;;
51616;SDS011;37697;52.588;13.394;2023-04-25T12:24:59;5.00;;;1.50;;
51616;SDS011;37697;52.588;13.394;2023-04-25T12:30:23;6.10;;;1.50;;
51616;SDS011;37697;52.588;13.394;2023-04-25T12:35:49;5.90;;;1.60;;
51616;SDS011;37697;52.588;13.394;2023-04-25T12:41:16;5.30;;;1.70;;
51616;SDS011;37697;52.588;13.394;2023-04-25T12:46:41;4.90;;;1.60;;
51616;SDS011;37697;52.588;13.394;2023-04-25T12:52:01;6.30;;;1.70;;
51616;SDS011;37697;52.588;13.394;2023-04-25T12:57:37;4.80;;;1.90;;
51616;SDS011;37697;52.588;13.394;2023-04-25T13:03:04;4.80;;;1.50;;
51616;SDS011;37697;52.588;13.394;2023-04-25T13:08:30;4.40;;;1.30;;
51616;SDS011;37697;52.588;13.394;2023-04-25T13:13:57;4.80;;;1.60;;
51616;SDS011;37697;52.588;13.394;2023-04-25T13:19:23;5.70;;;1.50;;
51616;SDS011;37697;52.588;13.394;2023-04-25T13:24:49;5.20;;;1.30;;
51616;SDS011;37697;52.588;13.394;2023-04-25T13:30:14;6.40;;;1.60;;
51616;SDS011;37697;52.588;13.394;2023-04-25T13:35:41;4.70;;;1.20;;
51616;SDS011;37697;52.588;13.394;2023-04-25T13:41:07;5.80;;;1.50;;
51616;SDS011;37697;52.588;13.394;2023-04-25T13:46:33;4.10;;;1.30;;
51616;SDS011;37697;52.588;13.394;2023-04-25T13:51:59;7.50;;;1.30;;
51616;SDS011;37697;52.588;13.394;2023-04-25T13:57:25;5.80;;;1.70;;
51616;SDS011;37697;52.588;13.394;2023-04-25T14:02:51;5.20;;;1.40;;
51616;SDS011;37697;52.588;13.394;2023-04-25T14:08:17;3.60;;;1.20;;
51616;SDS011;37697;52.588;13.394;2023-04-25T14:13:43;5.70;;;1.70;;
51616;SDS011;37697;52.588;13.394;2023-04-25T14:19:09;6.50;;;1.40;;
51616;SDS011;37697;52.588;13.394;2023-04-25T14:24:35;10.90;;;2.10;;
51616;SDS011;37697;52.588;13.394;2023-04-25T14:30:01;5.60;;;1.50;;
51616;SDS011;37697;52.588;13.394;2023-04-25T14:35:27;6.90;;;1.70;;
51616;SDS011;37697;52.588;13.394;2023-04-25T14:40:53;5.90;;;1.50;;
51616;SDS011;37697;52.588;13.394;2023-04-25T14:46:19;5.70;;;1.60;;
51616;SDS011;37697;52.588;13.394;2023-04-25T14:51:45;5.90;;;1.50;;
51616;SDS011;37697;52.588;13.394;2023-04-25T14:57:10;5.70;;;1.30;;
51616;SDS011;37697;52.588;13.394;2023-04-25T15:02:37;7.60;;;1.60;;
51616;SDS011;37697;52.588;13.394;2023-04-25T15:08:03;5.20;;;1.00;;
51616;SDS011;37697;52.588;13.394;2023-04-25T15:13:29;5.80;;;0.90;;
51616;SDS011;37697;52.588;13.394;2023-04-25T15:18:56;3.10;;;0.70;;
51616;SDS011;37697;52.588;13.394;2023-04-25T15:24:22;5.00;;;0.70;;
51616;SDS011;37697;52.588;13.394;2023-04-25T15:29:48;3.00;;;0.70;;
51616;SDS011;37697;52.588;13.394;2023-04-25T15:35:14;4.60;;;1.00;;
51616;SDS011;37697;52.588;13.394;2023-04-25T15:40:40;3.60;;;0.90;;
51616;SDS011;37697;52.588;13.394;2023-04-25T15:46:08;6.70;;;1.10;;
51616;SDS011;37697;52.588;13.394;2023-04-25T15:51:34;3.90;;;1.20;;
51616;SDS011;37697;52.588;13.394;2023-04-25T15:57:00;5.70;;;1.10;;
51616;SDS011;37697;52.588;13.394;2023-04-25T16:02:26;4.50;;;0.90;;
51616;SDS011;37697;52.588;13.394;2023-04-25T16:07:52;6.50;;;1.00;;
51616;SDS011;37697;52.588;13.394;2023-04-25T16:13:18;3.20;;;1.00;;
51616;SDS011;37697;52.588;13.394;2023-04-25T16:18:43;3.80;;;1.10;;
51616;SDS011;37697;52.588;13.394;2023-04-25T16:24:09;2.60;;;0.80;;
51616;SDS011;37697;52.588;13.394;2023-04-25T16:29:35;2.60;;;0.80;;
51616;SDS011;37697;52.588;13.394;2023-04-25T16:34:54;3.70;;;0.90;;
51616;SDS011;37697;52.588;13.394;2023-04-25T16:40:02;2.60;;;0.70;;
51616;SDS011;37697;52.588;13.394;2023-04-25T16:45:30;4.50;;;1.30;;
51616;SDS011;37697;52.588;13.394;2023-04-25T16:50:49;5.60;;;1.00;;
51616;SDS011;37697;52.588;13.394;2023-04-25T16:56:15;3.50;;;1.10;;
51616;SDS011;37697;52.588;13.394;2023-04-25T17:01:41;2.10;;;0.70;;
51616;SDS011;37697;52.588;13.394;2023-04-25T17:07:07;4.20;;;0.90;;
51616;SDS011;37697;52.588;13.394;2023-04-25T17:12:33;4.00;;;1.00;;
51616;SDS011;37697;52.588;13.394;2023-04-25T17:17:59;4.70;;;1.00;;
51616;SDS011;37697;52.588;13.394;2023-04-25T17:23:17;2.50;;;1.00;;
51616;SDS011;37697;52.588;13.394;2023-04-25T17:28:36;4.20;;;0.90;;
51616;SDS011;37697;52.588;13.394;2023-04-25T17:34:02;3.00;;;0.80;;
51616;SDS011;37697;52.588;13.394;2023-04-25T17:39:28;4.00;;;0.90;;
51616;SDS011;37697;52.588;13.394;2023-04-25T17:44:54;3.50;;;0.70;;
51616;SDS011;37697;52.588;13.394;2023-04-25T17:50:20;5.70;;;1.10;;
51616;SDS011;37697;52.588;13.394;2023-04-25T17:55:46;3.40;;;1.20;;
51616;SDS011;37697;52.588;13.394;2023-04-25T18:01:29;6.00;;;1.30;;
51616;SDS011;37697;52.588;13.394;2023-04-25T18:06:55;5.50;;;1.50;;
51616;SDS011;37697;52.588;13.394;2023-04-25T18:12:21;3.80;;;1.30;;
51616;SDS011;37697;52.588;13.394;2023-04-25T18:17:47;5.20;;;1.50;;
51616;SDS011;37697;52.588;13.394;2023-04-25T18:23:13;5.90;;;1.30;;
51616;SDS011;37697;52.588;13.394;2023-04-25T18:28:39;3.00;;;1.40;;
51616;SDS011;37697;52.588;13.394;2023-04-25T18:34:05;3.80;;;1.10;;
51616;SDS011;37697;52.588;13.394;2023-04-25T18:39:25;6.00;;;1.20;;
51616;SDS011;37697;52.588;13.394;2023-04-25T18:44:51;5.70;;;1.70;;
51616;SDS011;37697;52.588;13.394;2023-04-25T18:50:17;3.70;;;1.30;;
51616;SDS011;37697;52.588;13.394;2023-04-25T18:55:43;5.90;;;1.10;;
51616;SDS011;37697;52.588;13.394;2023-04-25T19:01:08;4.00;;;0.90;;
51616;SDS011;37697;52.588;13.394;2023-04-25T19:06:35;3.80;;;1.10;;
51616;SDS011;37697;52.588;13.394;2023-04-25T19:11:54;2.70;;;0.90;;
51616;SDS011;37697;52.588;13.394;2023-04-25T19:17:20;6.20;;;1.30;;
51616;SDS011;37697;52.588;13.394;2023-04-25T19:22:46;6.00;;;1.20;;
51616;SDS011;37697;52.588;13.394;2023-04-25T19:28:12;4.20;;;1.10;;
51616;SDS011;37697;52.588;13.394;2023-04-25T19:33:37;6.10;;;1.40;;
51616;SDS011;37697;52.588;13.394;2023-04-25T19:39:03;2.40;;;0.90;;
51616;SDS011;37697;52.588;13.394;2023-04-25T19:44:30;7.30;;;1.20;;
51616;SDS011;37697;52.588;13.394;2023-04-25T19:49:55;4.50;;;1.00;;
51616;SDS011;37697;52.588;13.394;2023-04-25T19:55:21;6.30;;;1.50;;
51616;SDS011;37697;52.588;13.394;2023-04-25T20:00:47;6.60;;;1.40;;
51616;SDS011;37697;52.588;13.394;2023-04-25T20:06:13;5.70;;;0.90;;
51616;SDS011;37697;52.588;13.394;2023-04-25T20:11:39;3.30;;;1.00;;
51616;SDS011;37697;52.588;13.394;2023-04-25T20:17:05;3.40;;;1.00;;
51616;SDS011;37697;52.588;13.394;2023-04-25T20:22:31;4.00;;;0.90;;
51616;SDS011;37697;52.588;13.394;2023-04-25T20:27:57;4.00;;;1.00;;
51616;SDS011;37697;52.588;13.394;2023-04-25T20:33:23;3.90;;;1.10;;
51616;SDS011;37697;52.588;13.394;2023-04-25T20:38:49;4.80;;;1.10;;
51616;SDS011;37697;52.588;13.394;2023-04-25T20:44:14;4.20;;;1.20;;
51616;SDS011;37697;52.588;13.394;2023-04-25T20:49:34;3.70;;;1.20;;
51616;SDS011;37697;52.588;13.394;2023-04-25T20:55:00;4.30;;;1.10;;
51616;SDS011;37697;52.588;13.394;2023-04-25T21:00:19;4.70;;;1.30;;
51616;SDS011;37697;52.588;13.394;2023-04-25T21:05:46;3.80;;;1.00;;
51616;SDS011;37697;52.588;13.394;2023-04-25T21:11:01;5.10;;;1.30;;
51616;SDS011;37697;52.588;13.394;2023-04-25T21:16:21;5.20;;;1.30;;
51616;SDS011;37697;52.588;13.394;2023-04-25T21:21:47;6.10;;;1.30;;
51616;SDS011;37697;52.588;13.394;2023-04-25T21:27:13;6.90;;;1.40;;
51616;SDS011;37697;52.588;13.394;2023-04-25T21:32:39;3.60;;;1.00;;
51616;SDS011;37697;52.588;13.394;2023-04-25T21:38:05;7.70;;;1.60;;
51616;SDS011;37697;52.588;13.394;2023-04-25T21:43:31;6.00;;;1.40;;
51616;SDS011;37697;52.588;13.394;2023-04-25T21:48:57;7.10;;;1.80;;
51616;SDS011;37697;52.588;13.394;2023-04-25T21:54:23;3.30;;;1.30;;
51616;SDS011;37697;52.588;13.394;2023-04-25T21:59:42;5.70;;;1.10;;
51616;SDS011;37697;52.588;13.394;2023-04-25T22:05:08;4.50;;;1.20;;
51616;SDS011;37697;52.588;13.394;2023-04-25T22:10:26;3.60;;;1.00;;
51616;SDS011;37697;52.588;13.394;2023-04-25T22:15:52;1.90;;;0.90;;
51616;SDS011;37697;52.588;13.394;2023-04-25T22:21:18;5.10;;;1.00;;
51616;SDS011;37697;52.588;13.394;2023-04-25T22:26:44;5.70;;;1.30;;
51616;SDS011;37697;52.588;13.394;2023-04-25T22:32:10;3.60;;;1.10;;
51616;SDS011;37697;52.588;13.394;2023-04-25T22:37:36;5.30;;;1.30;;
51616;SDS011;37697;52.588;13.394;2023-04-25T22:43:04;5.20;;;1.20;;
51616;SDS011;37697;52.588;13.394;2023-04-25T22:48:29;6.50;;;1.30;;
51616;SDS011;37697;52.588;13.394;2023-04-25T22:53:56;4.70;;;1.30;;
51616;SDS011;37697;52.588;13.394;2023-04-25T22:59:22;4.20;;;1.10;;
51616;SDS011;37697;52.588;13.394;2023-04-25T23:04:48;4.70;;;1.20;;
51616;SDS011;37697;52.588;13.394;2023-04-25T23:10:12;5.10;;;1.10;;
51616;SDS011;37697;52.588;13.394;2023-04-25T23:15:39;5.60;;;1.40;;
51616;SDS011;37697;52.588;13.394;2023-04-25T23:21:05;9.30;;;1.50;;
51616;SDS011;37697;52.588;13.394;2023-04-25T23:26:34;6.90;;;1.50;;
51616;SDS011;37697;52.588;13.394;2023-04-25T23:32:00;5.40;;;1.60;;
51616;SDS011;37697;52.588;13.394;2023-04-25T23:37:26;6.30;;;1.00;;
51616;SDS011;37697;52.588;13.394;2023-04-25T23:42:51;5.20;;;1.00;;
51616;SDS011;37697;52.588;13.394;2023-04-25T23:48:17;8.40;;;1.30;;
51616;SDS011;37697;52.588;13.394;2023-04-25T23:53:43;6.90;;;1.30;;
51616;SDS011;37697;52.588;13.394;2023-04-25T23:59:09;5.00;;;1.10;;
